Terminal Aerodrome Forecast
Issued by NWS

Home | Current Version | Previous Version | Text Only | Print | Product List | Glossary On
Versions: 1 2 3 4 5 6 7 8 9 10 11 12 13
000
FTUS46 KMFR 040541
TAFRBG
TAF
KRBG 040541Z 0406/0506 01005KT P6SM -SHRA BKN080 BKN100
     FM040900 36004KT P6SM -SHRA BKN020 BKN100
     FM041200 35003KT P6SM -SHRA OVC020
     FM042000 36010KT P6SM -SHRA BKN030 BKN040 OVC080
     FM050200 35006KT P6SM VCSH BKN025 BKN040 OVC080=

USA.gov is the U.S. government's official web portal to all federal, state and local government web resources and services.